createdAt,value
2019-02-18T00:01:54.924Z,13.40
2019-02-18T00:04:27.184Z,10.50
2019-02-18T00:07:00.076Z,12.07
2019-02-18T00:09:31.954Z,10.33
2019-02-18T00:12:05.127Z,11.87
2019-02-18T00:14:36.770Z,12.93
2019-02-18T00:17:08.740Z,13.17
2019-02-18T00:19:40.342Z,11.67
2019-02-18T00:22:12.075Z,12.70
2019-02-18T00:24:43.851Z,13.57
2019-02-18T00:27:15.609Z,15.20
2019-02-18T00:29:47.217Z,15.23
2019-02-18T00:32:18.889Z,13.33
2019-02-18T00:34:50.869Z,11.90
2019-02-18T00:37:24.694Z,13.63
2019-02-18T00:39:56.052Z,15.53
2019-02-18T00:42:27.907Z,16.07
2019-02-18T00:44:59.541Z,18.60
2019-02-18T00:47:31.155Z,15.87
2019-02-18T00:50:02.889Z,14.37
2019-02-18T00:52:34.534Z,14.33
2019-02-18T00:55:07.574Z,11.93
2019-02-18T00:57:39.470Z,13.97
2019-02-18T01:00:13.846Z,15.17
2019-02-18T01:02:46.878Z,12.97
2019-02-18T01:05:18.618Z,15.70
2019-02-18T01:07:50.259Z,17.53
2019-02-18T01:10:22.169Z,10.63
2019-02-18T01:12:54.188Z,11.37
2019-02-18T01:15:25.799Z,12.90
2019-02-18T01:17:57.442Z,11.83
2019-02-18T01:20:29.071Z,10.57
2019-02-18T01:23:00.681Z,8.63
2019-02-18T01:25:32.268Z,10.27
2019-02-18T01:28:04.152Z,9.67
2019-02-18T01:30:35.754Z,15.00
2019-02-18T01:33:07.417Z,11.83
2019-02-18T01:35:39.034Z,13.23
2019-02-18T01:38:10.651Z,12.58
2019-02-18T01:40:43.377Z,14.00
2019-02-18T01:43:15.072Z,9.97
2019-02-18T01:45:46.955Z,12.78
2019-02-18T01:48:18.724Z,11.30
2019-02-18T01:50:50.499Z,10.40
2019-02-18T01:53:22.446Z,14.27
2019-02-18T01:55:54.039Z,11.10
2019-02-18T01:58:25.920Z,13.90
2019-02-18T02:00:57.650Z,13.70
2019-02-18T02:03:29.498Z,16.47
2019-02-18T02:06:01.342Z,18.60
2019-02-18T02:08:33.274Z,12.00
2019-02-18T02:11:05.071Z,16.90
2019-02-18T02:13:37.991Z,13.48
2019-02-18T02:16:12.384Z,13.03
2019-02-18T02:18:44.224Z,13.53
2019-02-18T02:21:16.237Z,11.10
2019-02-18T02:23:48.019Z,13.87
2019-02-18T02:26:20.827Z,9.90
2019-02-18T02:28:53.572Z,11.10
2019-02-18T02:31:25.750Z,11.57
2019-02-18T02:33:57.325Z,11.60
2019-02-18T02:36:29.282Z,15.07
2019-02-18T02:39:00.997Z,11.00
2019-02-18T02:41:32.726Z,13.83
2019-02-18T02:44:04.419Z,14.03
2019-02-18T02:46:36.028Z,12.53
2019-02-18T02:49:08.759Z,11.40
2019-02-18T02:51:40.478Z,12.83
2019-02-18T02:54:12.208Z,10.37
2019-02-18T02:56:43.904Z,12.30
2019-02-18T02:59:15.667Z,13.77
2019-02-18T03:01:47.554Z,10.30
2019-02-18T03:04:19.184Z,14.00
2019-02-18T03:06:50.965Z,12.50
2019-02-18T03:09:22.617Z,12.93
2019-02-18T03:11:54.373Z,13.70
2019-02-18T03:14:26.485Z,12.53
2019-02-18T03:16:58.396Z,12.57
2019-02-18T03:19:30.059Z,13.08
2019-02-18T03:22:02.075Z,11.93
2019-02-18T03:24:33.953Z,10.17
2019-02-18T03:27:07.165Z,15.70
2019-02-18T03:30:58.677Z,10.37
2019-02-18T03:33:39.002Z,10.63
2019-02-18T03:36:10.644Z,12.33
2019-02-18T03:38:42.545Z,13.17
2019-02-18T03:41:14.134Z,10.93
2019-02-18T03:43:46.995Z,11.97
2019-02-18T03:46:18.601Z,11.10
2019-02-18T03:48:50.289Z,8.33
2019-02-18T03:51:21.910Z,12.87
2019-02-18T03:53:53.711Z,13.70
2019-02-18T03:56:25.338Z,10.83
2019-02-18T03:58:57.013Z,12.60
2019-02-18T04:01:28.867Z,10.70
2019-02-18T04:04:00.502Z,13.87
2019-02-18T04:06:32.261Z,12.25
2019-02-18T04:09:04.929Z,14.00
2019-02-18T04:11:36.542Z,15.00
2019-02-18T04:14:08.543Z,14.93
2019-02-18T04:16:40.239Z,12.70
2019-02-18T04:19:11.962Z,11.43
2019-02-18T04:21:43.655Z,13.00
2019-02-18T04:24:15.356Z,8.77
2019-02-18T04:26:47.298Z,10.25
2019-02-18T04:29:18.985Z,10.70
2019-02-18T04:31:50.729Z,11.70
2019-02-18T04:34:22.385Z,13.13
2019-02-18T04:36:54.019Z,13.80
2019-02-18T04:39:25.871Z,13.07
2019-02-18T04:41:57.583Z,11.20
2019-02-18T04:44:29.457Z,14.28
2019-02-18T04:47:01.253Z,11.27
2019-02-18T04:49:33.096Z,15.67
2019-02-18T04:52:04.794Z,14.90
2019-02-18T04:54:36.575Z,10.13
2019-02-18T04:57:08.343Z,11.20
2019-02-18T04:59:40.097Z,10.87
2019-02-18T05:02:11.883Z,11.80
2019-02-18T05:04:43.608Z,12.17
2019-02-18T05:07:15.275Z,11.68
2019-02-18T05:09:47.199Z,11.60
2019-02-18T05:12:19.097Z,9.53
2019-02-18T05:14:50.851Z,11.30
2019-02-18T05:17:22.574Z,11.50
2019-02-18T05:19:54.191Z,11.35
2019-02-18T05:22:27.370Z,12.17
2019-02-18T05:24:59.015Z,11.43
2019-02-18T05:27:33.533Z,12.77
2019-02-18T05:30:05.740Z,12.27
2019-02-18T05:32:37.384Z,14.17
2019-02-18T05:35:09.109Z,13.63
2019-02-18T05:37:40.756Z,13.43
2019-02-18T05:40:16.823Z,12.57
2019-02-18T05:42:47.524Z,11.60
2019-02-18T05:45:19.181Z,12.77
2019-02-18T05:47:50.809Z,14.83
2019-02-18T05:50:22.423Z,12.50
2019-02-18T05:52:54.051Z,17.17
2019-02-18T05:55:25.776Z,12.07
2019-02-18T05:57:57.555Z,14.87
2019-02-18T06:00:29.637Z,15.07
2019-02-18T06:03:01.275Z,13.27
2019-02-18T06:05:32.903Z,13.03
2019-02-18T06:08:04.561Z,16.60
2019-02-18T06:10:36.211Z,17.23
2019-02-18T06:13:07.950Z,20.87
2019-02-18T06:15:39.600Z,18.30
2019-02-18T06:18:10.198Z,19.90
2019-02-18T06:20:39.400Z,21.10
2019-02-18T06:23:11.052Z,17.40
2019-02-18T06:25:42.715Z,22.10
2019-02-18T06:28:14.757Z,20.72
2019-02-18T06:30:47.406Z,21.14
2019-02-18T06:33:19.120Z,20.07
2019-02-18T06:35:51.382Z,15.27
2019-02-18T06:38:23.439Z,14.17
2019-02-18T06:40:55.037Z,17.85
2019-02-18T06:43:26.851Z,14.23
2019-02-18T06:46:24.590Z,12.90
2019-02-18T06:49:02.715Z,16.87
2019-02-18T06:51:34.444Z,13.38
2019-02-18T06:54:06.105Z,15.67
2019-02-18T06:56:55.883Z,11.43
2019-02-18T06:59:31.804Z,10.53
2019-02-18T07:02:22.312Z,15.15
2019-02-18T07:05:00.318Z,13.50
2019-02-18T07:07:50.139Z,13.80
2019-02-18T07:10:40.717Z,12.53
2019-02-18T07:13:12.544Z,12.78
2019-02-18T07:15:44.399Z,12.50
2019-02-18T07:18:16.274Z,15.77
2019-02-18T07:20:48.018Z,12.77
2019-02-18T07:23:19.719Z,14.50
2019-02-18T07:25:51.384Z,14.97
2019-02-18T07:28:23.244Z,14.47
2019-02-18T07:30:55.039Z,17.50
2019-02-18T07:33:26.796Z,15.43
2019-02-18T07:35:58.487Z,15.70
2019-02-18T07:38:30.138Z,17.30
2019-02-18T07:41:03.136Z,16.33
2019-02-18T07:43:34.900Z,15.47
2019-02-18T07:46:06.929Z,12.47
2019-02-18T07:48:38.678Z,17.83
2019-02-18T07:51:10.319Z,15.30
2019-02-18T07:53:41.979Z,13.73
2019-02-18T07:56:13.736Z,14.73
2019-02-18T07:58:45.403Z,14.33
2019-02-18T08:01:17.212Z,14.27
2019-02-18T08:03:49.093Z,16.80
2019-02-18T08:06:20.756Z,10.97
2019-02-18T08:08:52.398Z,45.52
2019-02-18T08:11:24.153Z,27.87
2019-02-18T08:13:56.185Z,23.10
2019-02-18T08:16:28.111Z,17.90
2019-02-18T08:18:59.932Z,11.38
2019-02-18T08:21:31.590Z,11.57
2019-02-18T08:24:03.310Z,10.50
2019-02-18T08:26:35.048Z,9.90
2019-02-18T08:29:06.711Z,11.00
2019-02-18T08:31:38.686Z,12.47
2019-02-18T08:34:10.336Z,14.17
2019-02-18T08:36:42.036Z,14.20
2019-02-18T08:39:13.665Z,16.07
2019-02-18T08:41:45.308Z,11.73
2019-02-18T08:44:17.044Z,11.87
2019-02-18T08:46:48.680Z,9.03
2019-02-18T08:49:20.551Z,16.43
2019-02-18T08:51:52.387Z,13.35
2019-02-18T08:54:24.058Z,11.30
2019-02-18T08:56:55.646Z,16.80
2019-02-18T08:59:27.317Z,16.50
2019-02-18T09:01:59.238Z,17.90
2019-02-18T09:04:31.036Z,13.80
2019-02-18T09:07:02.862Z,14.13
2019-02-18T09:09:34.489Z,17.67
2019-02-18T09:12:06.113Z,13.70
2019-02-18T09:14:37.820Z,12.45
2019-02-18T09:17:09.612Z,14.83
2019-02-18T09:19:41.376Z,12.43
2019-02-18T09:22:31.014Z,12.50
2019-02-18T09:25:08.440Z,9.43
2019-02-18T09:27:40.514Z,10.40
2019-02-18T09:30:15.251Z,11.97
2019-02-18T09:32:47.911Z,10.20
2019-02-18T09:35:19.596Z,8.13
2019-02-18T09:37:51.211Z,8.77
2019-02-18T09:40:23.084Z,10.65
2019-02-18T09:42:54.833Z,9.00
2019-02-18T09:45:26.493Z,7.33
2019-02-18T09:47:58.290Z,7.03
2019-02-18T09:50:29.915Z,9.70
2019-02-18T09:53:02.512Z,9.10
2019-02-18T09:55:34.453Z,9.47
2019-02-18T09:58:06.890Z,7.90
2019-02-18T10:00:39.625Z,8.60
2019-02-18T10:03:11.268Z,8.30
2019-02-18T10:05:43.249Z,7.80
2019-02-18T10:08:14.933Z,5.90
2019-02-18T10:10:55.427Z,8.70
2019-02-18T10:13:21.555Z,6.20
2019-02-18T10:15:53.219Z,6.67
2019-02-18T10:18:25.035Z,5.73
2019-02-18T10:20:56.702Z,6.30
2019-02-18T10:23:28.424Z,5.40
2019-02-18T10:26:00.767Z,6.27
2019-02-18T10:28:32.664Z,7.30
2019-02-18T10:31:04.366Z,8.67
2019-02-18T10:33:36.025Z,5.93
2019-02-18T10:36:07.675Z,5.13
2019-02-18T10:38:40.285Z,6.90
2019-02-18T10:41:12.443Z,15.13
2019-02-18T10:43:44.513Z,7.00
2019-02-18T10:46:16.134Z,6.83
2019-02-18T10:48:49.391Z,8.00
2019-02-18T10:51:21.204Z,7.63
2019-02-18T10:53:52.935Z,8.63
2019-02-18T10:56:24.589Z,5.13
2019-02-18T10:58:56.918Z,6.80
2019-02-18T11:01:28.609Z,8.30
2019-02-18T11:04:00.234Z,6.37
2019-02-18T11:06:31.850Z,7.50
2019-02-18T11:09:04.066Z,4.90
2019-02-18T11:11:37.486Z,5.33
2019-02-18T11:14:09.775Z,8.57
2019-02-18T11:16:41.778Z,8.07
2019-02-18T11:19:13.653Z,5.63
2019-02-18T11:21:45.607Z,6.33
2019-02-18T11:24:17.330Z,9.10
2019-02-18T11:26:49.018Z,5.47
2019-02-18T11:29:21.419Z,6.90
2019-02-18T11:31:53.257Z,5.70
2019-02-18T11:34:24.928Z,5.90
2019-02-18T11:36:56.595Z,7.30
2019-02-18T11:39:28.820Z,7.20
2019-02-18T11:42:00.486Z,7.37
2019-02-18T11:44:32.930Z,5.90
2019-02-18T11:47:04.589Z,6.80
2019-02-18T11:49:36.453Z,6.90
2019-02-18T11:52:09.562Z,5.27
2019-02-18T11:54:41.238Z,6.28
2019-02-18T11:57:12.876Z,5.90
2019-02-18T11:59:45.283Z,5.00
2019-02-18T12:02:17.080Z,6.27
2019-02-18T12:04:50.305Z,4.80
2019-02-18T12:07:21.961Z,4.93
2019-02-18T12:09:53.727Z,6.17
2019-02-18T12:12:25.573Z,5.27
2019-02-18T12:14:57.915Z,6.33
2019-02-18T12:17:30.138Z,8.53
2019-02-18T12:20:01.907Z,4.90
2019-02-18T12:22:37.747Z,5.10
2019-02-18T12:25:09.510Z,4.77
2019-02-18T12:27:41.238Z,4.97
2019-02-18T12:30:15.224Z,3.70
2019-02-18T12:32:48.144Z,6.80
2019-02-18T12:35:30.219Z,4.87
2019-02-18T12:37:55.628Z,6.00
2019-02-18T12:40:26.768Z,7.57
2019-02-18T12:42:58.560Z,5.70
2019-02-18T12:45:30.629Z,6.60
2019-02-18T12:48:02.354Z,6.50
2019-02-18T12:50:34.026Z,5.83
2019-02-18T12:53:05.684Z,4.20
2019-02-18T12:55:37.428Z,4.50
2019-02-18T12:58:09.254Z,4.03
2019-02-18T13:00:41.321Z,4.83
2019-02-18T13:03:13.660Z,4.90
2019-02-18T13:05:45.729Z,6.00
2019-02-18T13:08:17.371Z,5.03
2019-02-18T13:10:50.011Z,8.60
2019-02-18T13:13:21.788Z,6.93
2019-02-18T13:15:54.674Z,7.43
2019-02-18T13:18:26.864Z,3.97
2019-02-18T13:20:58.503Z,5.67
2019-02-18T13:23:30.232Z,6.50
2019-02-18T13:26:01.845Z,6.40
2019-02-18T13:28:34.632Z,5.00
2019-02-18T13:31:06.312Z,4.50
2019-02-18T13:33:38.928Z,11.63
2019-02-18T13:36:16.034Z,6.57
2019-02-18T13:38:48.561Z,5.25
2019-02-18T13:41:20.578Z,5.10
2019-02-18T13:43:52.267Z,7.47
2019-02-18T13:46:23.915Z,4.43
2019-02-18T13:48:57.810Z,4.60
2019-02-18T13:51:29.440Z,4.60
2019-02-18T13:54:01.182Z,5.30
2019-02-18T13:56:33.267Z,7.47
2019-02-18T13:59:04.928Z,5.20
2019-02-18T14:01:36.616Z,8.10
2019-02-18T14:04:09.186Z,4.57
2019-02-18T14:06:40.877Z,6.60
2019-02-18T14:09:12.849Z,4.53
2019-02-18T14:11:44.738Z,3.50
2019-02-18T14:14:16.412Z,3.27
2019-02-18T14:16:48.853Z,5.00
2019-02-18T14:19:21.355Z,5.93
2019-02-18T14:21:53.525Z,3.72
2019-02-18T14:24:25.350Z,3.17
2019-02-18T14:26:59.085Z,4.37
2019-02-18T14:29:30.892Z,4.00
2019-02-18T14:32:02.657Z,4.40
2019-02-18T14:34:36.571Z,4.30
2019-02-18T14:37:08.613Z,4.17
2019-02-18T14:39:40.332Z,8.03
2019-02-18T14:42:12.113Z,3.80
2019-02-18T14:44:44.308Z,6.77
2019-02-18T14:47:16.040Z,6.30
2019-02-18T14:49:47.737Z,5.20
2019-02-18T14:52:20.487Z,4.33
2019-02-18T14:54:52.143Z,5.77
2019-02-18T14:57:24.571Z,5.95
2019-02-18T14:59:56.217Z,3.80
2019-02-18T15:02:28.370Z,5.20
2019-02-18T15:05:00.148Z,5.85
2019-02-18T15:07:32.613Z,4.67
2019-02-18T15:10:04.710Z,8.10
2019-02-18T15:12:37.049Z,5.90
2019-02-18T15:15:08.816Z,4.53
2019-02-18T15:17:40.672Z,5.40
2019-02-18T15:20:12.428Z,4.67
2019-02-18T15:22:45.306Z,11.30
2019-02-18T15:25:17.022Z,5.27
2019-02-18T15:27:48.791Z,6.77
2019-02-18T15:30:20.714Z,5.50
2019-02-18T15:32:52.454Z,5.70
2019-02-18T15:35:24.238Z,6.80
2019-02-18T15:37:56.751Z,3.67
2019-02-18T15:40:28.833Z,4.33
2019-02-18T15:43:00.937Z,5.50
2019-02-18T15:45:32.786Z,7.23
2019-02-18T15:48:04.614Z,4.73
2019-02-18T15:50:36.474Z,9.63
2019-02-18T15:53:08.850Z,7.70
2019-02-18T15:55:41.955Z,4.07
2019-02-18T15:58:14.000Z,5.80
2019-02-18T16:00:45.735Z,4.47
2019-02-18T16:03:17.405Z,7.70
2019-02-18T16:05:49.075Z,4.57
2019-02-18T16:08:21.421Z,7.23
2019-02-18T16:10:53.459Z,6.40
2019-02-18T16:13:25.434Z,7.20
2019-02-18T16:15:57.236Z,6.30
2019-02-18T16:18:29.197Z,7.20
2019-02-18T16:21:00.896Z,8.33
2019-02-18T16:23:33.074Z,7.47
2019-02-18T16:26:05.506Z,5.50
2019-02-18T16:28:37.187Z,6.20
2019-02-18T16:31:08.906Z,5.80
2019-02-18T16:33:40.653Z,5.07
2019-02-18T16:36:12.355Z,5.07
2019-02-18T16:38:44.005Z,4.43
2019-02-18T16:41:16.300Z,4.60
2019-02-18T16:43:48.064Z,4.17
2019-02-18T16:46:20.338Z,6.33
2019-02-18T16:48:52.298Z,5.33
2019-02-18T16:51:23.996Z,14.33
2019-02-18T16:53:55.770Z,5.97
2019-02-18T16:56:28.387Z,7.27
2019-02-18T16:59:00.304Z,6.53
2019-02-18T17:01:32.314Z,5.33
2019-02-18T17:04:03.990Z,5.20
2019-02-18T17:06:35.693Z,7.17
2019-02-18T17:09:14.757Z,4.97
2019-02-18T17:11:47.103Z,4.63
2019-02-18T17:14:18.958Z,7.77
2019-02-18T17:16:50.663Z,6.93
2019-02-18T17:19:22.618Z,4.83
2019-02-18T17:21:54.434Z,4.63
2019-02-18T17:24:26.534Z,7.93
2019-02-18T17:26:58.896Z,6.50
2019-02-18T17:29:30.834Z,10.27
2019-02-18T17:32:02.534Z,9.90
2019-02-18T17:34:34.217Z,9.30
2019-02-18T17:37:06.270Z,8.23
2019-02-18T17:39:37.963Z,10.47
2019-02-18T17:42:10.384Z,13.40
2019-02-18T17:44:42.254Z,7.63
2019-02-18T17:47:14.349Z,6.10
2019-02-18T17:49:46.043Z,7.60
2019-02-18T17:52:17.956Z,11.90
2019-02-18T17:54:49.691Z,10.30
2019-02-18T17:57:21.884Z,10.57
2019-02-18T17:59:53.736Z,8.30
2019-02-18T18:02:25.654Z,8.37
2019-02-18T18:04:57.338Z,10.40
2019-02-18T18:07:29.123Z,11.67
2019-02-18T18:10:00.809Z,11.73
2019-02-18T18:12:33.349Z,8.50
2019-02-18T18:15:05.442Z,8.13
2019-02-18T18:17:37.776Z,6.77
2019-02-18T18:20:10.677Z,11.60
2019-02-18T18:22:42.357Z,11.07
2019-02-18T18:25:14.368Z,11.60
2019-02-18T18:27:46.776Z,21.20
2019-02-18T18:30:18.644Z,9.40
2019-02-18T18:32:50.718Z,12.93
2019-02-18T18:35:22.546Z,13.23
2019-02-18T18:37:57.588Z,12.10
2019-02-18T18:40:32.046Z,11.80
2019-02-18T18:43:04.639Z,14.97
2019-02-18T18:45:37.426Z,13.10
2019-02-18T18:48:09.148Z,18.57
2019-02-18T18:50:41.019Z,15.90
2019-02-18T18:53:12.701Z,19.10
2019-02-18T18:55:46.399Z,13.27
2019-02-18T18:58:18.178Z,14.93
2019-02-18T19:00:50.723Z,15.27
2019-02-18T19:03:22.514Z,13.43
2019-02-18T19:05:54.383Z,12.80
2019-02-18T19:08:28.033Z,17.03
2019-02-18T19:10:59.849Z,11.97
2019-02-18T19:13:31.863Z,12.97
2019-02-18T19:16:04.100Z,17.37
2019-02-18T19:18:36.052Z,18.47
2019-02-18T19:21:08.227Z,20.80
2019-02-18T19:23:40.393Z,21.70
2019-02-18T19:26:13.560Z,16.97
2019-02-18T19:28:46.529Z,17.80
2019-02-18T19:31:18.533Z,19.83
2019-02-18T19:33:51.382Z,18.93
2019-02-18T19:36:23.333Z,21.00
2019-02-18T19:38:55.338Z,18.63
2019-02-18T19:46:29.732Z,11.63
2019-02-18T19:49:01.820Z,12.80
2019-02-18T19:51:34.893Z,12.60
2019-02-18T19:54:07.243Z,12.13
2019-02-18T19:56:39.372Z,12.90
2019-02-18T19:59:11.478Z,19.47
2019-02-18T20:01:44.901Z,13.37
2019-02-18T20:04:16.918Z,13.57
2019-02-18T20:06:49.310Z,15.60
2019-02-18T20:09:21.114Z,11.27
2019-02-18T20:11:53.197Z,15.00
2019-02-18T20:14:25.072Z,25.33
2019-02-18T20:16:57.653Z,28.17
2019-02-18T20:19:29.776Z,27.10
2019-02-18T20:22:01.781Z,37.00
2019-02-18T20:24:33.877Z,24.00
2019-02-18T20:27:05.968Z,17.00
2019-02-18T20:29:37.771Z,15.20
2019-02-18T20:32:11.630Z,16.20
2019-02-18T20:34:44.954Z,16.93
2019-02-18T20:37:17.390Z,19.57
2019-02-18T20:39:49.216Z,16.03
2019-02-18T20:42:20.991Z,16.97
2019-02-18T20:44:52.829Z,14.43
2019-02-18T20:47:25.453Z,21.43
2019-02-18T20:49:57.709Z,31.70
2019-02-18T20:52:30.320Z,39.17
2019-02-18T20:55:02.039Z,34.83
2019-02-18T20:57:33.908Z,31.60
2019-02-18T21:00:08.322Z,24.97
2019-02-18T21:02:40.120Z,18.73
2019-02-18T21:05:12.052Z,24.00
2019-02-18T21:07:44.443Z,22.37
2019-02-18T21:10:18.045Z,23.20
2019-02-18T21:12:51.265Z,19.73
2019-02-18T21:15:23.037Z,17.60
2019-02-18T21:17:54.986Z,26.87
2019-02-18T21:20:26.714Z,20.07
2019-02-18T21:22:58.489Z,19.30
2019-02-18T21:25:30.733Z,22.93
2019-02-18T21:28:02.409Z,18.10
2019-02-18T21:30:34.225Z,25.50
2019-02-18T21:33:05.916Z,17.03
2019-02-18T21:35:37.811Z,15.53
2019-02-18T21:38:09.772Z,19.17
2019-02-18T21:40:41.903Z,19.70
2019-02-18T21:43:13.672Z,20.27
2019-02-18T21:45:45.492Z,15.70
2019-02-18T21:48:18.719Z,14.67
2019-02-18T21:50:51.009Z,11.40
2019-02-18T21:53:22.797Z,12.70
2019-02-18T21:55:54.816Z,16.83
2019-02-18T21:58:26.905Z,17.23
2019-02-18T22:00:58.675Z,18.73
2019-02-18T22:03:30.431Z,20.10
2019-02-18T22:06:02.107Z,19.10
2019-02-18T22:08:33.797Z,16.63
2019-02-18T22:11:07.787Z,26.97
2019-02-18T22:13:39.672Z,22.40
2019-02-18T22:16:11.384Z,14.30
2019-02-18T22:18:43.380Z,13.60
2019-02-18T22:21:15.552Z,16.73
2019-02-18T22:23:47.671Z,15.10
2019-02-18T22:26:19.698Z,11.03
2019-02-18T22:28:51.355Z,13.93
2019-02-18T22:31:23.164Z,13.53
2019-02-18T22:33:56.496Z,16.60
2019-02-18T22:36:30.618Z,16.60
2019-02-18T22:39:07.560Z,21.10
2019-02-18T22:41:40.437Z,19.10
2019-02-18T22:44:13.458Z,18.73
2019-02-18T22:46:45.202Z,15.60
2019-02-18T22:49:19.630Z,14.50
2019-02-18T22:51:51.855Z,12.73
2019-02-18T22:54:25.177Z,15.43
2019-02-18T22:56:57.133Z,13.77
2019-02-18T22:59:29.809Z,13.40
2019-02-18T23:02:01.540Z,13.40
2019-02-18T23:04:33.430Z,13.80
2019-02-18T23:07:05.186Z,12.80
2019-02-18T23:09:37.120Z,11.93
2019-02-18T23:12:13.620Z,10.30
2019-02-18T23:14:50.526Z,10.80
2019-02-18T23:17:19.245Z,14.20
2019-02-18T23:19:51.052Z,12.07
2019-02-18T23:22:22.671Z,12.47
2019-02-18T23:24:56.493Z,14.77
2019-02-18T23:27:28.274Z,12.03
2019-02-18T23:30:00.655Z,13.97
2019-02-18T23:32:32.306Z,11.03
2019-02-18T23:35:04.408Z,15.87
2019-02-18T23:37:36.567Z,15.27
2019-02-18T23:40:10.643Z,10.80
2019-02-18T23:42:42.425Z,11.07
2019-02-18T23:45:14.446Z,17.20
2019-02-18T23:47:46.068Z,16.13
2019-02-18T23:50:17.703Z,14.17
2019-02-18T23:52:49.724Z,13.57
2019-02-18T23:55:21.392Z,12.63
2019-02-18T23:57:53.048Z,15.60
